Julius S — V2GN4 — position and weather

sailwx.info

Track history (hours):
 
Tides and Currents Weather Stations Pressure Air Temp Water Temp Dewpoint Dewpoint Depression Visibility Wind Speed Wind Dir Waves Ship Positions

Julius S

Last reported at 2018-May-21 16:48 UTC. Time now 2018-May-22 07:39 UTC.
Position N 36°06' W 005°10'.

Length 207 m; draft 9.8 m.

Type: Ship. MMSI: 304010000.

Date/timePositionNaut miles runAvg speedWind from/ knotsBaromVisibWave heightAir tempDewpointWater temp
2018-May-21 16:48N 36°06' W 005°10'1 1.2
2018-May-21 16:21N 36°06' W 005°10'0 0.8
2018-May-21 16:00N 36°05' W 005°10'0 0.6
2018-May-21 15:30N 36°05' W 005°10'0 0.5
2018-May-21 15:00N 36°05' W 005°10'0 0.5
2018-May-21 14:30N 36°05' W 005°10'0 0.3
2018-May-21 14:00N 36°05' W 005°10'7 9.9
2018-May-21 13:20N 36°02' W 005°03'2 0.2
2018-May-21 02:37N 36°01' W 005°03'0 2.4
2018-May-21 02:26N 36°01' W 005°03'1 2.4
2018-May-21 01:58N 36°01' W 005°04'1 1.8
2018-May-21 01:28N 36°02' W 005°05'1 1.5
2018-May-21 00:55N 36°02' W 005°06'1 1.3
2018-May-21 00:28N 36°02' W 005°07'1 1.6
2018-May-20 23:59N 36°03' W 005°07'1 1.7
2018-May-20 23:30N 36°04' W 005°08'1 1.6
2018-May-20 23:00N 36°05' W 005°08'1 1.6
2018-May-20 22:30N 36°05' W 005°09'1 1.6
2018-May-20 22:00N 36°06' W 005°09'1 1.6
2018-May-20 21:27N 36°06' W 005°10'1 1.4
2018-May-20 21:00N 36°06' W 005°11'1 1.1
2018-May-20 20:18N 36°07' W 005°12'2 1.3
2018-May-20 18:54N 36°06' W 005°14'2 1.2
2018-May-20 17:35N 36°05' W 005°16'112.2
2018-May-20 17:30N 36°05' W 005°17'714.0
2018-May-20 17:01N 35°60' W 005°22'9 0.7
2018-May-20 03:33N 35°53' W 005°30'1 3.4
2018-May-20 03:14N 35°55' W 005°30'2 7.2
2018-May-20 02:58N 35°55' W 005°32'1 1.8
2018-May-20 02:26N 35°54' W 005°33'1 0.6
2018-May-20 00:24N 35°55' W 005°34'3 6.7
2018-May-20 00:00N 35°54' W 005°38'4 8.5
2018-May-19 23:30N 35°54' W 005°43'3 6.3
2018-May-19 23:00N 35°54' W 005°47'4 8.8
2018-May-19 22:30N 35°53' W 005°52'6 9.5
2018-May-19 21:51N 35°52' W 005°60'55311.6
2018-May-17 22:08N 28°59' W 013°15'213.6
2018-May-17 22:00N 28°57' W 013°16'913.7
2018-May-17 21:22N 28°49' W 013°20'613.8
2018-May-17 20:58N 28°44' W 013°23'  
2018-May-14 04:48N 09°26' W 016°03'4917.3
2018-May-14 01:57N 08°54' W 015°26'817.0
2018-May-14 01:30N 08°49' W 015°20'1016.8
2018-May-14 00:55N 08°42' W 015°12'816.6
2018-May-14 00:26N 08°37' W 015°06'716.4
2018-May-14 00:00N 08°32' W 015°01'1016.4
2018-May-13 23:22N 08°25' W 014°53'616.7
2018-May-13 23:00N 08°21' W 014°48'817.0
2018-May-13 22:30N 08°16' W 014°42'917.0
2018-May-13 22:00N 08°10' W 014°35'1617.1
2018-May-13 21:05N 07°60' W 014°23'4916.8
2018-May-13 18:09N 07°30' W 013°44'316.7
2018-May-13 17:57N 07°28' W 013°41'816.8
2018-May-13 17:30N 07°24' W 013°35'816.8
2018-May-13 17:00N 07°19' W 013°28'1216.9
2018-May-13 16:18N 07°13' W 013°17'  
Track history (hours):
 
Tides and Currents Weather Stations Pressure Air Temp Water Temp Dewpoint Dewpoint Depression Visibility Wind Speed Wind Dir Waves Ship Positions

Julius S

Last reported at 2018-May-21 16:48 UTC. Time now 2018-May-22 07:39 UTC.
Position N 36°06' W 005°10'.

Length 207 m; draft 9.8 m.

Type: Ship. MMSI: 304010000.

Date/timePositionNaut miles runAvg speedWind from/ knotsBaromVisibWave heightAir tempDewpointWater temp
2018-May-21 16:48N 36°06' W 005°10'1 1.2
2018-May-21 16:21N 36°06' W 005°10'0 0.8
2018-May-21 16:00N 36°05' W 005°10'0 0.6
2018-May-21 15:30N 36°05' W 005°10'0 0.5
2018-May-21 15:00N 36°05' W 005°10'0 0.5
2018-May-21 14:30N 36°05' W 005°10'0 0.3
2018-May-21 14:00N 36°05' W 005°10'7 9.9
2018-May-21 13:20N 36°02' W 005°03'2 0.2
2018-May-21 02:37N 36°01' W 005°03'0 2.4
2018-May-21 02:26N 36°01' W 005°03'1 2.4
2018-May-21 01:58N 36°01' W 005°04'1 1.8
2018-May-21 01:28N 36°02' W 005°05'1 1.5
2018-May-21 00:55N 36°02' W 005°06'1 1.3
2018-May-21 00:28N 36°02' W 005°07'1 1.6
2018-May-20 23:59N 36°03' W 005°07'1 1.7
2018-May-20 23:30N 36°04' W 005°08'1 1.6
2018-May-20 23:00N 36°05' W 005°08'1 1.6
2018-May-20 22:30N 36°05' W 005°09'1 1.6
2018-May-20 22:00N 36°06' W 005°09'1 1.6
2018-May-20 21:27N 36°06' W 005°10'1 1.4
2018-May-20 21:00N 36°06' W 005°11'1 1.1
2018-May-20 20:18N 36°07' W 005°12'2 1.3
2018-May-20 18:54N 36°06' W 005°14'2 1.2
2018-May-20 17:35N 36°05' W 005°16'112.2
2018-May-20 17:30N 36°05' W 005°17'714.0
2018-May-20 17:01N 35°60' W 005°22'9 0.7
2018-May-20 03:33N 35°53' W 005°30'1 3.4
2018-May-20 03:14N 35°55' W 005°30'2 7.2
2018-May-20 02:58N 35°55' W 005°32'1 1.8
2018-May-20 02:26N 35°54' W 005°33'1 0.6
2018-May-20 00:24N 35°55' W 005°34'3 6.7
2018-May-20 00:00N 35°54' W 005°38'4 8.5
2018-May-19 23:30N 35°54' W 005°43'3 6.3
2018-May-19 23:00N 35°54' W 005°47'4 8.8
2018-May-19 22:30N 35°53' W 005°52'6 9.5
2018-May-19 21:51N 35°52' W 005°60'55311.6
2018-May-17 22:08N 28°59' W 013°15'213.6
2018-May-17 22:00N 28°57' W 013°16'913.7
2018-May-17 21:22N 28°49' W 013°20'613.8
2018-May-17 20:58N 28°44' W 013°23'  
2018-May-14 04:48N 09°26' W 016°03'4917.3
2018-May-14 01:57N 08°54' W 015°26'817.0
2018-May-14 01:30N 08°49' W 015°20'1016.8
2018-May-14 00:55N 08°42' W 015°12'816.6
2018-May-14 00:26N 08°37' W 015°06'716.4
2018-May-14 00:00N 08°32' W 015°01'1016.4
2018-May-13 23:22N 08°25' W 014°53'616.7
2018-May-13 23:00N 08°21' W 014°48'817.0
2018-May-13 22:30N 08°16' W 014°42'917.0
2018-May-13 22:00N 08°10' W 014°35'1617.1
2018-May-13 21:05N 07°60' W 014°23'4916.8
2018-May-13 18:09N 07°30' W 013°44'316.7
2018-May-13 17:57N 07°28' W 013°41'816.8
2018-May-13 17:30N 07°24' W 013°35'816.8
2018-May-13 17:00N 07°19' W 013°28'1216.9
2018-May-13 16:18N 07°13' W 013°17'  

Dump ship's entire track history